Time;durP1;ratioP1;P1;durP2;ratioP2;P2;SDS_P1;SDS_P2;PMS_P1;PMS_P2;Temp;Humidity;BMP_temperature;BMP_pressure;BME280_temperature;BME280_humidity;BME280_pressure;Samples;Min_cycle;Max_cycle;Signal;HPM_P1;HPM_P2
2022/12/16 00:00:21;;;;;;;30.13;16.03;;;;;;;;;;5008607;28;20545;-76
2022/12/16 00:02:47;;;;;;;27.33;16.33;;;;;;;;;;5007317;28;20523;-76
2022/12/16 00:05:13;;;;;;;24.30;14.70;;;;;;;;;;5004384;28;20997;-76
2022/12/16 00:07:40;;;;;;;24.10;14.17;;;;;;;;;;5012128;28;20524;-76
2022/12/16 00:10:06;;;;;;;24.50;15.07;;;;;;;;;;5001310;28;20461;-76
2022/12/16 00:12:32;;;;;;;25.80;14.93;;;;;;;;;;5001716;28;20438;-76
2022/12/16 00:14:59;;;;;;;25.30;14.93;;;;;;;;;;5006293;28;20463;-76
2022/12/16 00:17:25;;;;;;;26.90;15.20;;;;;;;;;;5006331;28;20434;-76
2022/12/16 00:19:51;;;;;;;25.63;14.80;;;;;;;;;;5003253;28;21204;-75
2022/12/16 00:22:17;;;;;;;24.03;14.90;;;;;;;;;;5002480;28;20442;-76
2022/12/16 00:24:43;;;;;;;26.33;15.10;;;;;;;;;;5010800;28;20190;-76
2022/12/16 00:27:10;;;;;;;25.33;15.07;;;;;;;;;;5006664;28;21149;-76
2022/12/16 00:29:36;;;;;;;26.30;15.07;;;;;;;;;;5006836;28;21275;-76
2022/12/16 00:32:02;;;;;;;24.83;14.50;;;;;;;;;;5003972;28;20951;-76
2022/12/16 00:34:29;;;;;;;25.67;15.07;;;;;;;;;;5012706;28;20471;-77
2022/12/16 00:36:55;;;;;;;24.63;14.60;;;;;;;;;;5001392;28;20418;-76
2022/12/16 00:39:21;;;;;;;24.43;14.23;;;;;;;;;;5008057;28;20463;-76
2022/12/16 00:41:47;;;;;;;25.27;14.67;;;;;;;;;;5004097;28;20439;-77
2022/12/16 00:44:13;;;;;;;24.87;14.27;;;;;;;;;;5003320;28;20520;-77
2022/12/16 00:46:39;;;;;;;23.83;14.90;;;;;;;;;;5006661;28;20449;-79
2022/12/16 00:49:06;;;;;;;26.37;15.57;;;;;;;;;;5002331;28;20684;-76
2022/12/16 00:51:32;;;;;;;25.20;15.13;;;;;;;;;;4999756;28;21000;-75
2022/12/16 00:53:58;;;;;;;23.57;14.17;;;;;;;;;;5000457;28;20454;-76
2022/12/16 00:56:24;;;;;;;25.23;14.43;;;;;;;;;;5006008;28;20283;-76
2022/12/16 00:58:50;;;;;;;24.07;14.47;;;;;;;;;;4998802;28;20522;-76
2022/12/16 01:01:16;;;;;;;26.23;14.80;;;;;;;;;;5007340;28;20621;-75
2022/12/16 01:03:43;;;;;;;23.77;14.10;;;;;;;;;;4997082;28;20439;-76
2022/12/16 01:06:13;;;;;;;20.67;13.20;;;;;;;;;;4998254;28;20484;-76
2022/12/16 01:08:47;;;;;;;25.57;14.83;;;;;;;;;;4978760;28;20438;-76
2022/12/16 01:11:13;;;;;;;25.30;15.07;;;;;;;;;;5003479;28;21180;-77
2022/12/16 01:13:40;;;;;;;24.33;13.90;;;;;;;;;;5005311;28;20434;-77
2022/12/16 01:16:06;;;;;;;19.60;13.23;;;;;;;;;;4998800;28;20578;-76
2022/12/16 01:18:32;;;;;;;23.77;14.83;;;;;;;;;;5010031;28;20792;-77
2022/12/16 01:21:02;;;;;;;25.73;14.07;;;;;;;;;;5018625;28;20491;-77
2022/12/16 01:23:28;;;;;;;22.70;13.63;;;;;;;;;;5009033;28;20956;-77
2022/12/16 01:25:58;;;;;;;24.23;14.23;;;;;;;;;;4991143;28;20438;-77
2022/12/16 01:28:24;;;;;;;23.37;14.00;;;;;;;;;;5006826;28;20554;-76
2022/12/16 01:30:55;;;;;;;23.60;13.47;;;;;;;;;;5007998;28;20520;-77
2022/12/16 01:33:22;;;;;;;23.50;13.43;;;;;;;;;;4997090;28;20993;-76
2022/12/16 01:35:48;;;;;;;20.70;12.77;;;;;;;;;;5008082;28;20564;-76
2022/12/16 01:38:15;;;;;;;23.70;13.37;;;;;;;;;;5002092;28;20794;-76
2022/12/16 01:40:41;;;;;;;20.73;13.20;;;;;;;;;;5011762;28;20874;-76
2022/12/16 01:43:12;;;;;;;25.27;13.23;;;;;;;;;;4998317;28;20431;-76
2022/12/16 01:45:38;;;;;;;20.83;12.50;;;;;;;;;;5005825;28;22076;-77
2022/12/16 01:48:21;;;;;;;23.20;14.07;;;;;;;;;;4992795;28;20427;-76
2022/12/16 01:50:48;;;;;;;24.43;13.97;;;;;;;;;;5006268;28;20537;-76
2022/12/16 01:53:16;;;;;;;22.60;13.40;;;;;;;;;;5010279;28;20562;-75
2022/12/16 01:55:45;;;;;;;21.50;13.10;;;;;;;;;;5005857;28;20471;-76
2022/12/16 01:58:18;;;;;;;23.43;13.33;;;;;;;;;;5004128;28;20807;-76
2022/12/16 02:00:44;;;;;;;22.50;13.70;;;;;;;;;;5019126;28;20463;-76
2022/12/16 02:03:10;;;;;;;21.80;12.80;;;;;;;;;;5008670;28;20492;-76
2022/12/16 02:05:39;;;;;;;24.70;14.10;;;;;;;;;;4987960;28;20535;-77
2022/12/16 02:08:05;;;;;;;22.00;13.07;;;;;;;;;;4993111;28;20469;-76
2022/12/16 02:10:43;;;;;;;20.07;13.07;;;;;;;;;;5012105;28;20463;-76
2022/12/16 02:13:21;;;;;;;22.03;12.70;;;;;;;;;;5015453;28;20902;-76
2022/12/16 02:15:47;;;;;;;22.03;13.00;;;;;;;;;;5000212;28;20920;-76
2022/12/16 02:18:20;;;;;;;24.00;14.40;;;;;;;;;;5006324;28;20422;-76
2022/12/16 02:21:07;;;;;;;22.40;13.23;;;;;;;;;;5005477;28;20494;-76
2022/12/16 02:23:34;;;;;;;21.90;13.30;;;;;;;;;;4999662;28;20418;-76
2022/12/16 02:26:19;;;;;;;22.87;12.93;;;;;;;;;;4998754;28;20497;-77
2022/12/16 02:28:45;;;;;;;22.53;13.53;;;;;;;;;;4999553;28;21255;-76
2022/12/16 02:31:21;;;;;;;23.63;13.30;;;;;;;;;;4992311;28;21182;-76
2022/12/16 02:34:07;;;;;;;23.63;12.83;;;;;;;;;;5010034;28;20854;-77
2022/12/16 02:36:41;;;;;;;21.30;12.43;;;;;;;;;;4995119;28;20441;-76
2022/12/16 02:39:13;;;;;;;21.13;12.40;;;;;;;;;;5011744;28;21119;-77
2022/12/16 02:41:46;;;;;;;22.43;13.17;;;;;;;;;;4999761;28;20457;-76
2022/12/16 02:44:13;;;;;;;22.07;12.13;;;;;;;;;;4990935;28;20514;-76
2022/12/16 02:46:51;;;;;;;22.90;13.33;;;;;;;;;;5011263;28;20792;-76
2022/12/16 02:49:17;;;;;;;21.03;11.93;;;;;;;;;;5012549;28;20436;-76
2022/12/16 02:51:44;;;;;;;21.37;12.93;;;;;;;;;;5003196;28;20451;-75
2022/12/16 02:54:11;;;;;;;22.80;12.63;;;;;;;;;;5008397;28;20434;-76
2022/12/16 02:56:37;;;;;;;19.60;12.57;;;;;;;;;;5001662;28;20456;-76
2022/12/16 02:59:17;;;;;;;23.00;13.67;;;;;;;;;;5005182;28;20492;-76
2022/12/16 03:01:54;;;;;;;22.87;12.93;;;;;;;;;;4996142;28;20477;-76
2022/12/16 03:04:25;;;;;;;18.37;11.80;;;;;;;;;;5009484;28;20437;-77
2022/12/16 03:06:52;;;;;;;21.83;11.97;;;;;;;;;;5013226;28;20438;-76
2022/12/16 03:09:22;;;;;;;23.50;12.67;;;;;;;;;;5005916;28;20450;-77
2022/12/16 03:11:49;;;;;;;20.93;12.17;;;;;;;;;;5011086;28;20525;-76
2022/12/16 03:14:16;;;;;;;19.07;11.47;;;;;;;;;;4996701;28;20463;-76
2022/12/16 03:16:43;;;;;;;26.30;13.50;;;;;;;;;;5010659;28;20455;-76
2022/12/16 03:19:10;;;;;;;22.27;12.83;;;;;;;;;;5014469;28;20422;-76
2022/12/16 03:21:54;;;;;;;22.17;13.07;;;;;;;;;;5007981;28;20999;-76
2022/12/16 03:24:21;;;;;;;22.33;13.00;;;;;;;;;;5004644;28;20498;-76
2022/12/16 03:26:53;;;;;;;21.37;12.00;;;;;;;;;;4999745;28;20499;-76
2022/12/16 03:29:24;;;;;;;21.27;12.23;;;;;;;;;;5005933;28;20441;-76
2022/12/16 03:31:58;;;;;;;21.47;12.13;;;;;;;;;;5016567;28;20817;-75
2022/12/16 03:34:32;;;;;;;19.80;12.63;;;;;;;;;;5009836;28;21027;-76
2022/12/16 03:37:01;;;;;;;21.27;12.20;;;;;;;;;;5007886;28;20525;-76
2022/12/16 03:39:28;;;;;;;21.87;13.20;;;;;;;;;;5012954;28;20541;-76
2022/12/16 03:41:55;;;;;;;26.50;13.80;;;;;;;;;;5018430;28;20440;-76
2022/12/16 03:44:22;;;;;;;23.30;13.40;;;;;;;;;;5010967;28;20480;-76
2022/12/16 03:46:48;;;;;;;22.10;12.03;;;;;;;;;;5007020;28;21316;-76
2022/12/16 03:49:14;;;;;;;21.37;13.17;;;;;;;;;;5006468;28;20465;-76
2022/12/16 03:51:41;;;;;;;22.23;12.47;;;;;;;;;;5011327;28;20968;-76
2022/12/16 03:54:07;;;;;;;22.90;12.77;;;;;;;;;;5012442;28;20432;-76
2022/12/16 03:56:33;;;;;;;21.20;12.83;;;;;;;;;;5005638;28;20793;-76
2022/12/16 03:58:59;;;;;;;18.40;10.80;;;;;;;;;;5007775;28;20790;-76
2022/12/16 04:01:25;;;;;;;18.83;11.37;;;;;;;;;;5019957;28;20457;-76
2022/12/16 04:03:51;;;;;;;19.50;11.80;;;;;;;;;;5010455;28;20856;-76
2022/12/16 04:06:18;;;;;;;19.77;12.03;;;;;;;;;;5016156;28;20442;-76
2022/12/16 04:08:45;;;;;;;22.00;12.80;;;;;;;;;;5016602;28;20419;-76
2022/12/16 04:25:13;;;;;;;22.90;12.63;;;;;;;;;;5003924;28;20440;-76
2022/12/16 04:27:45;;;;;;;24.57;13.17;;;;;;;;;;5007280;28;20990;-76
2022/12/16 04:30:18;;;;;;;24.03;13.20;;;;;;;;;;5002968;28;20582;-75
